createdAt,value
2023-04-15T00:04:00.786Z,4.87
2023-04-15T00:19:02.701Z,4.69
2023-04-15T00:34:04.941Z,4.41
2023-04-15T00:49:06.642Z,4.27
2023-04-15T01:04:10.455Z,4.25
2023-04-15T01:19:12.406Z,3.97
2023-04-15T01:34:14.012Z,3.53
2023-04-15T01:49:15.888Z,3.43
2023-04-15T02:04:18.241Z,3.39
2023-04-15T02:19:19.854Z,3.38
2023-04-15T02:34:21.676Z,3.33
2023-04-15T02:49:23.422Z,3.63
2023-04-15T03:04:25.265Z,3.47
2023-04-15T03:19:27.010Z,3.66
2023-04-15T03:34:28.783Z,3.94
2023-04-15T03:49:30.643Z,4.10
2023-04-15T04:04:32.686Z,3.80
2023-04-15T04:19:34.502Z,3.61
2023-04-15T04:34:36.327Z,3.59
2023-04-15T04:49:37.973Z,3.27
2023-04-15T05:04:39.679Z,4.06
2023-04-15T05:19:41.432Z,4.64
2023-04-15T05:34:43.021Z,5.24
2023-04-15T05:49:47.538Z,6.20
2023-04-15T06:04:49.265Z,6.63
2023-04-15T06:19:55.673Z,6.53
2023-04-15T06:34:57.371Z,7.45
2023-04-15T06:49:59.093Z,8.56
2023-04-15T07:05:00.878Z,9.59
2023-04-15T07:20:02.463Z,11.34
2023-04-15T07:35:04.230Z,11.84
2023-04-15T07:50:07.066Z,10.70
2023-04-15T08:05:09.426Z,10.96
2023-04-15T08:20:11.014Z,10.79
2023-04-15T08:35:14.549Z,11.59
2023-04-15T08:50:16.150Z,12.58
2023-04-15T09:05:17.877Z,13.57
2023-04-15T09:20:19.590Z,12.62
2023-04-15T09:35:21.195Z,12.10
2023-04-15T09:50:22.977Z,11.03
2023-04-15T10:05:24.601Z,11.24
2023-04-15T10:20:26.390Z,11.85
2023-04-15T10:35:28.164Z,11.12
2023-04-15T10:50:30.132Z,10.96
2023-04-15T11:05:31.733Z,10.40
2023-04-15T11:20:33.390Z,11.15
2023-04-15T11:35:35.093Z,11.34
2023-04-15T11:50:36.964Z,10.91
2023-04-15T12:05:38.533Z,11.43
2023-04-15T12:20:40.103Z,11.42
2023-04-15T12:35:41.672Z,11.47
2023-04-15T12:50:43.230Z,10.48
2023-04-15T13:05:45.047Z,10.43
2023-04-15T13:20:46.770Z,10.04
2023-04-15T13:35:48.388Z,9.79
2023-04-15T13:50:49.988Z,9.74
2023-04-15T14:05:56.352Z,9.52
2023-04-15T14:20:57.920Z,9.09
2023-04-15T14:35:59.641Z,8.82
2023-04-15T14:51:01.276Z,8.50
2023-04-15T15:06:03.262Z,7.73
2023-04-15T15:21:04.803Z,7.13
2023-04-15T15:36:12.683Z,7.09
2023-04-15T15:51:14.388Z,6.93
2023-04-15T16:06:16.799Z,6.71
2023-04-15T16:21:19.679Z,6.61
2023-04-15T16:36:21.336Z,6.41
2023-04-15T16:51:22.978Z,6.46
2023-04-15T17:06:24.561Z,6.56
2023-04-15T17:21:26.140Z,6.36
2023-04-15T17:36:31.113Z,6.22
2023-04-15T17:51:32.671Z,6.20
2023-04-15T18:06:41.638Z,6.03
2023-04-15T18:21:43.231Z,5.87
2023-04-15T18:36:44.830Z,5.83
2023-04-15T18:51:46.669Z,5.70
2023-04-15T19:06:48.221Z,5.63
2023-04-15T19:21:50.197Z,5.47
2023-04-15T19:36:52.003Z,5.39
2023-04-15T19:51:53.591Z,5.41
2023-04-15T20:06:56.016Z,5.39
2023-04-15T20:21:57.596Z,5.39
2023-04-15T20:36:59.157Z,5.46
2023-04-15T20:52:00.986Z,5.52
2023-04-15T21:07:02.634Z,5.49
2023-04-15T21:22:04.410Z,5.53
2023-04-15T21:37:06.013Z,5.53
2023-04-15T21:52:07.616Z,5.62
2023-04-15T22:07:09.228Z,5.67
2023-04-15T22:22:10.812Z,5.70
2023-04-15T22:37:12.483Z,5.75
2023-04-15T22:52:20.220Z,5.80
2023-04-15T23:07:31.362Z,5.79
2023-04-15T23:22:32.989Z,5.83
2023-04-15T23:37:34.558Z,5.92
2023-04-15T23:52:36.703Z,5.89
